Yerbogachen, Russia
Current Conditions -  °F | °C
As of 4:30 PM on Saturday 25 Oct 2014 (Local Time) from UIBB Reporting Station
Few Clouds Few Clouds  
Wind Chill:   Ceiling: Unl
Heat Index: 19°   Visibility: 6mi
Dew Point:   Wind: 9mph
Humidity: 58%   Direction: 130°SE
Pressure: 30.33"   Gusts: NA
Location:  61.28°N, 108.01°E
Report Text: UIBB 250830Z 13004MPS 9999 FEW200 M07/M14 Q1027 NOSIG RMKQFE727/0969 30850540
Loading
Personal Weather Stations






























Interactive Weather Map
Tropical Storm Tracking
New forecast layout! Learn more

10-Day Weather Forecast

Advertisements
Track Severe Weather on mobile